Time;durP1;ratioP1;P1;durP2;ratioP2;P2;SDS_P1;SDS_P2;PMS_P1;PMS_P2;Temp;Humidity;BMP_temperature;BMP_pressure;BME280_temperature;BME280_humidity;BME280_pressure;Samples;Min_cycle;Max_cycle;Signal;HPM_P1;HPM_P2
2023/12/31 00:00:28;;;;;;;33.35;13.50;;;;;;;4.81;100.00;100736.31;4944644;29;20191;-43
2023/12/31 00:02:53;;;;;;;28.98;13.93;;;;;;;4.85;100.00;100731.81;4946718;29;20233;-42
2023/12/31 00:05:19;;;;;;;28.88;12.85;;;;;;;4.82;100.00;100731.88;4944512;29;20182;-43
2023/12/31 00:07:45;;;;;;;27.00;13.48;;;;;;;4.85;100.00;100726.50;4941455;29;20194;-44
2023/12/31 00:10:11;;;;;;;25.77;12.95;;;;;;;4.82;100.00;100727.44;4942855;29;20182;-45
2023/12/31 00:12:36;;;;;;;29.83;12.88;;;;;;;4.79;100.00;100719.56;4927463;29;20215;-44
2023/12/31 00:15:04;;;;;;;35.10;14.07;;;;;;;4.78;100.00;100720.44;4943920;29;20193;-43
2023/12/31 00:17:30;;;;;;;28.27;12.52;;;;;;;4.77;100.00;100713.38;4941501;29;20235;-42
2023/12/31 00:19:55;;;;;;;30.23;11.68;;;;;;;4.75;100.00;100712.53;4946270;29;20618;-42
2023/12/31 00:22:21;;;;;;;26.90;12.85;;;;;;;4.75;100.00;100710.75;4936870;28;20190;-41
2023/12/31 00:24:46;;;;;;;27.08;12.40;;;;;;;4.78;100.00;100708.94;4942722;29;20199;-41
2023/12/31 00:27:12;;;;;;;29.60;12.35;;;;;;;4.73;100.00;100706.38;4943186;29;20607;-42
2023/12/31 00:29:37;;;;;;;25.27;12.05;;;;;;;4.69;100.00;100709.97;4942995;29;20179;-43
2023/12/31 00:32:03;;;;;;;28.20;11.45;;;;;;;4.72;100.00;100707.25;4943977;29;20186;-42
2023/12/31 00:34:28;;;;;;;21.65;11.05;;;;;;;4.74;100.00;100716.06;4940656;29;20203;-41
2023/12/31 00:36:54;;;;;;;27.40;12.13;;;;;;;4.71;100.00;100708.16;4944326;29;20220;-42
2023/12/31 00:39:19;;;;;;;25.30;12.13;;;;;;;4.71;100.00;100703.72;4945620;28;20676;-43
2023/12/31 00:41:45;;;;;;;32.97;11.40;;;;;;;4.68;100.00;100708.19;4927963;29;20183;-43
2023/12/31 00:44:10;;;;;;;22.73;11.70;;;;;;;4.68;100.00;100693.19;4945688;29;20445;-42
2023/12/31 00:46:36;;;;;;;37.05;11.48;;;;;;;4.73;100.00;100701.06;4926769;29;20187;-43
2023/12/31 00:49:02;;;;;;;26.70;10.60;;;;;;;4.71;100.00;100690.47;4946299;29;20578;-41
2023/12/31 00:51:28;;;;;;;22.15;10.25;;;;;;;4.69;100.00;100686.97;4946090;29;20187;-41
2023/12/31 00:53:53;;;;;;;26.05;11.60;;;;;;;4.67;100.00;100696.72;4927246;29;20226;-41
2023/12/31 00:56:19;;;;;;;24.45;10.35;;;;;;;4.69;100.00;100689.59;4942141;28;20206;-40
2023/12/31 00:58:44;;;;;;;25.35;10.93;;;;;;;4.65;100.00;100689.69;4942477;29;20179;-41
2023/12/31 01:01:10;;;;;;;29.42;10.48;;;;;;;4.62;100.00;100680.00;4943664;29;20195;-42
2023/12/31 01:03:35;;;;;;;29.85;10.15;;;;;;;4.62;100.00;100692.41;4942958;28;20203;-43
2023/12/31 01:06:05;;;;;;;22.48;9.98;;;;;;;4.62;100.00;100685.31;4941014;29;20263;-43
2023/12/31 01:08:30;;;;;;;25.27;10.27;;;;;;;4.61;100.00;100680.03;4944134;29;20189;-41
2023/12/31 01:10:56;;;;;;;17.33;8.75;;;;;;;4.62;100.00;100689.75;4926973;29;20183;-41
2023/12/31 01:13:21;;;;;;;24.88;9.05;;;;;;;4.61;100.00;100682.69;4943452;29;20214;-42
2023/12/31 01:15:46;;;;;;;20.58;10.18;;;;;;;4.58;100.00;100674.78;4943337;29;20197;-41
2023/12/31 01:18:12;;;;;;;23.83;9.05;;;;;;;4.58;100.00;100669.47;4946204;29;20182;-42
2023/12/31 01:20:37;;;;;;;29.27;9.85;;;;;;;4.58;100.00;100674.78;4915846;29;20175;-42
2023/12/31 01:23:03;;;;;;;20.02;9.15;;;;;;;4.64;100.00;100664.94;4939650;29;20214;-44
2023/12/31 01:25:29;;;;;;;19.60;8.30;;;;;;;4.63;100.00;100671.13;4930327;29;20331;-42
2023/12/31 01:27:55;;;;;;;22.25;8.30;;;;;;;4.60;100.00;100670.31;4928082;29;20258;-42
2023/12/31 01:30:22;;;;;;;23.50;9.00;;;;;;;4.60;100.00;100667.66;4926117;29;20197;-41
2023/12/31 01:32:49;;;;;;;21.77;8.18;;;;;;;4.57;100.00;100663.28;4930209;29;20630;-43
2023/12/31 01:35:14;;;;;;;21.67;8.82;;;;;;;4.54;100.00;100666.84;4943866;29;20194;-42
2023/12/31 01:37:40;;;;;;;22.45;8.75;;;;;;;4.59;100.00;100661.50;4942559;29;20191;-41
2023/12/31 01:40:08;;;;;;;19.10;8.43;;;;;;;4.54;100.00;100655.38;4928856;29;20297;-42
2023/12/31 01:42:34;;;;;;;17.55;7.90;;;;;;;4.51;100.00;100653.66;4928928;28;20267;-42
2023/12/31 01:44:59;;;;;;;20.33;7.68;;;;;;;4.51;100.00;100650.13;4940228;29;20334;-42
2023/12/31 01:47:25;;;;;;;17.45;7.47;;;;;;;4.53;100.00;100651.84;4939444;29;20186;-42
2023/12/31 01:49:51;;;;;;;19.02;7.88;;;;;;;4.48;100.00;100651.06;4928295;29;20178;-43
2023/12/31 01:52:18;;;;;;;18.33;7.20;;;;;;;4.45;100.00;100658.16;4931146;28;20186;-42
2023/12/31 01:54:43;;;;;;;18.15;6.38;;;;;;;4.45;100.00;100652.88;4924502;29;20349;-42
2023/12/31 01:57:11;;;;;;;18.27;7.57;;;;;;;4.39;100.00;100647.66;4940875;28;20267;-41
2023/12/31 01:59:37;;;;;;;14.50;6.47;;;;;;;4.42;100.00;100645.84;4940918;28;20186;-42
2023/12/31 02:02:03;;;;;;;20.17;5.97;;;;;;;4.39;100.00;100642.34;4943760;28;20191;-42
2023/12/31 02:04:33;;;;;;;21.70;7.40;;;;;;;4.41;100.00;100635.25;4943047;29;20205;-42
2023/12/31 02:07:02;;;;;;;13.80;5.72;;;;;;;4.34;100.00;100637.13;4941203;29;20201;-43
2023/12/31 02:09:29;;;;;;;13.38;6.40;;;;;;;4.37;100.00;100639.72;4943719;29;20641;-42
2023/12/31 02:11:55;;;;;;;18.88;6.65;;;;;;;4.29;100.00;100634.53;4942052;29;20198;-42
2023/12/31 02:14:20;;;;;;;22.58;6.47;;;;;;;4.30;100.00;100632.75;4940575;29;20208;-42
2023/12/31 02:16:46;;;;;;;13.27;7.05;;;;;;;4.29;100.00;100626.59;4944603;28;20567;-43
2023/12/31 02:19:11;;;;;;;21.40;6.65;;;;;;;4.31;100.00;100626.56;4927770;29;20662;-42
2023/12/31 02:21:37;;;;;;;16.52;6.32;;;;;;;4.31;100.00;100623.91;4942713;29;20329;-42
2023/12/31 02:24:03;;;;;;;21.88;6.32;;;;;;;4.29;100.00;100623.06;4943247;28;20234;-41
2023/12/31 02:26:29;;;;;;;13.30;5.78;;;;;;;4.30;100.00;100619.50;4935997;29;20601;-41
2023/12/31 02:28:55;;;;;;;13.25;6.30;;;;;;;4.30;100.00;100617.72;4927998;29;20285;-42
2023/12/31 02:31:20;;;;;;;18.55;5.70;;;;;;;4.32;100.00;100613.25;4946177;29;20187;-42
2023/12/31 02:33:46;;;;;;;9.60;5.30;;;;;;;4.31;100.00;100613.31;4938783;28;20347;-41
2023/12/31 02:36:11;;;;;;;13.05;5.75;;;;;;;4.27;100.00;100601.88;4930657;29;20584;-42
2023/12/31 02:38:36;;;;;;;15.93;5.30;;;;;;;4.38;100.00;100611.44;4938895;28;20226;-42
2023/12/31 02:41:02;;;;;;;16.55;5.47;;;;;;;4.34;100.00;100613.25;4936678;29;20678;-42
2023/12/31 02:43:27;;;;;;;16.92;5.68;;;;;;;4.37;100.00;100607.88;4936294;28;20653;-42
2023/12/31 02:45:54;;;;;;;12.55;5.68;;;;;;;4.37;100.00;100607.88;4940684;29;20561;-44
2023/12/31 02:48:21;;;;;;;13.27;5.43;;;;;;;4.39;100.00;100603.44;4928379;29;20278;-43
2023/12/31 02:50:46;;;;;;;16.23;5.75;;;;;;;4.39;100.00;100591.94;4938115;29;20187;-42
2023/12/31 02:53:12;;;;;;;12.50;5.57;;;;;;;4.44;100.00;100587.44;4938354;29;20202;-43
2023/12/31 02:55:37;;;;;;;15.57;5.38;;;;;;;4.44;100.00;100588.34;4922653;29;20187;-41
2023/12/31 02:58:03;;;;;;;13.63;5.40;;;;;;;4.44;100.00;100585.69;4938360;28;20207;-42
2023/12/31 03:00:29;;;;;;;13.85;5.90;;;;;;;4.45;100.00;100591.84;4932292;29;20179;-42
2023/12/31 03:02:55;;;;;;;13.90;5.07;;;;;;;4.39;100.00;100592.81;4938709;28;20215;-42
2023/12/31 03:05:20;;;;;;;16.95;5.28;;;;;;;4.39;100.00;100594.59;4937962;29;20627;-41
2023/12/31 03:07:46;;;;;;;12.43;4.97;;;;;;;4.34;100.00;100592.03;4942167;28;20666;-42
2023/12/31 03:10:11;;;;;;;15.52;5.53;;;;;;;4.31;100.00;100584.13;4939237;29;20206;-42
2023/12/31 03:12:37;;;;;;;16.15;5.00;;;;;;;4.29;100.00;100591.25;4940165;28;20225;-42
2023/12/31 03:15:03;;;;;;;9.65;5.45;;;;;;;4.27;100.00;100575.34;4941498;29;20190;-41
2023/12/31 03:17:29;;;;;;;14.98;5.72;;;;;;;4.28;100.00;100576.22;4941006;29;20329;-42
2023/12/31 03:19:55;;;;;;;18.40;5.70;;;;;;;4.34;100.00;100577.00;4941856;28;20270;-43
2023/12/31 03:22:20;;;;;;;15.95;4.80;;;;;;;4.32;100.00;100569.97;4929456;28;20250;-42
2023/12/31 03:24:46;;;;;;;14.45;5.38;;;;;;;4.34;100.00;100568.16;4930966;29;20375;-41
2023/12/31 03:27:11;;;;;;;14.57;5.63;;;;;;;4.33;100.00;100569.09;4944916;29;20190;-41
2023/12/31 03:29:37;;;;;;;14.98;5.82;;;;;;;4.32;100.00;100560.22;4946854;29;20191;-42
2023/12/31 03:32:04;;;;;;;13.40;5.68;;;;;;;4.35;100.00;100553.97;4931948;29;20645;-41
2023/12/31 03:34:29;;;;;;;15.75;5.20;;;;;;;4.33;100.00;100547.88;4942249;28;20323;-42
2023/12/31 03:36:55;;;;;;;13.98;5.60;;;;;;;4.33;100.00;100542.56;4943976;29;20230;-42
2023/12/31 03:39:20;;;;;;;13.45;5.47;;;;;;;4.32;100.00;100533.69;4924469;29;20278;-41
2023/12/31 03:41:47;;;;;;;17.88;5.78;;;;;;;4.32;100.00;100539.00;4942683;28;20194;-43
2023/12/31 03:44:13;;;;;;;9.40;5.78;;;;;;;4.34;100.00;100544.28;4927906;29;20226;-41
2023/12/31 03:46:38;;;;;;;8.93;5.13;;;;;;;4.36;100.00;100544.28;4928679;29;20171;-41
2023/12/31 03:49:04;;;;;;;16.92;5.38;;;;;;;4.34;100.00;100539.00;4923851;29;20205;-42
2023/12/31 03:51:29;;;;;;;16.10;5.68;;;;;;;4.36;100.00;100531.00;4942102;29;20321;-42
2023/12/31 03:53:55;;;;;;;12.38;4.95;;;;;;;4.37;100.00;100524.78;4924500;29;20698;-41
2023/12/31 03:56:20;;;;;;;14.38;4.63;;;;;;;4.38;100.00;100534.53;4946654;29;20221;-44
2023/12/31 03:58:46;;;;;;;13.35;4.85;;;;;;;4.36;100.00;100525.72;4942660;29;20679;-43
2023/12/31 04:01:11;;;;;;;12.82;5.03;;;;;;;4.38;100.00;100524.78;4942226;29;20191;-42
2023/12/31 04:03:39;;;;;;;13.85;4.70;;;;;;;4.37;100.00;100511.53;4927043;29;20268;-42
2023/12/31 04:06:06;;;;;;;16.95;5.13;;;;;;;4.38;100.00;100522.13;4946357;29;20630;-41
2023/12/31 04:08:32;;;;;;;7.07;4.25;;;;;;;4.37;100.00;100515.06;4941597;29;20286;-42
2023/12/31 04:10:57;;;;;;;9.98;4.45;;;;;;;4.37;100.00;100507.09;4944034;29;20195;-42
2023/12/31 04:13:24;;;;;;;12.75;4.57;;;;;;;4.39;100.00;100509.72;4944825;28;20218;-42
2023/12/31 04:15:49;;;;;;;10.73;4.63;;;;;;;4.40;100.00;100500.88;4940523;29;20198;-42
2023/12/31 04:18:15;;;;;;;13.55;4.60;;;;;;;4.39;100.00;100496.47;4942014;29;20183;-43
2023/12/31 04:20:40;;;;;;;13.45;4.00;;;;;;;4.38;100.00;100508.88;4942190;29;20198;-41
2023/12/31 04:23:07;;;;;;;11.38;4.22;;;;;;;4.34;100.00;100496.56;4940546;28;20337;-40
2023/12/31 04:25:32;;;;;;;16.88;4.72;;;;;;;4.33;100.00;100476.25;4944022;28;20186;-41
2023/12/31 04:27:59;;;;;;;12.88;4.60;;;;;;;4.32;100.00;100475.34;4945750;29;20198;-40
2023/12/31 04:30:25;;;;;;;13.90;4.18;;;;;;;4.34;100.00;100481.50;4942093;29;20186;-42
2023/12/31 04:32:51;;;;;;;15.73;3.80;;;;;;;4.32;100.00;100490.41;4946070;28;20198;-42
2023/12/31 04:35:17;;;;;;;8.43;3.97;;;;;;;4.29;100.00;100482.50;4938205;29;20246;-42
2023/12/31 04:37:42;;;;;;;12.27;4.10;;;;;;;4.36;100.00;100472.66;4942312;29;20231;-41
2023/12/31 04:40:08;;;;;;;10.98;3.88;;;;;;;4.37;100.00;100467.31;4945736;29;20202;-41
2023/12/31 04:42:33;;;;;;;11.57;4.28;;;;;;;4.41;100.00;100466.34;4946120;28;20625;-42
2023/12/31 04:45:04;;;;;;;9.48;3.50;;;;;;;4.44;100.00;100465.41;4943082;28;20538;-41
2023/12/31 04:47:29;;;;;;;13.50;3.92;;;;;;;4.45;100.00;100456.56;4944742;29;20664;-40
2023/12/31 04:49:55;;;;;;;16.23;3.85;;;;;;;4.46;100.00;100463.59;4930390;29;20187;-42
2023/12/31 04:52:20;;;;;;;9.70;3.50;;;;;;;4.47;100.00;100463.59;4942977;28;20278;-42
2023/12/31 04:54:46;;;;;;;7.57;3.55;;;;;;;4.45;100.00;100459.22;4942082;28;20186;-42
2023/12/31 04:57:11;;;;;;;12.20;3.70;;;;;;;4.47;100.00;100455.63;4932850;29;20269;-42
2023/12/31 04:59:37;;;;;;;10.07;3.63;;;;;;;4.47;100.00;100457.41;4943646;29;20179;-42
2023/12/31 05:02:03;;;;;;;9.77;3.90;;;;;;;4.46;100.00;100453.00;4926820;29;20179;-41
2023/12/31 05:04:29;;;;;;;10.35;3.40;;;;;;;4.49;100.00;100458.28;4942694;28;20202;-41
2023/12/31 05:06:54;;;;;;;7.32;3.10;;;;;;;4.48;100.00;100444.13;4942501;29;20690;-41
2023/12/31 05:09:20;;;;;;;9.00;2.80;;;;;;;4.48;100.00;100452.09;4926729;29;20206;-41
2023/12/31 05:11:45;;;;;;;5.82;3.00;;;;;;;4.45;100.00;100430.03;4940252;28;20273;-41
2023/12/31 05:14:11;;;;;;;6.72;3.50;;;;;;;4.45;100.00;100428.25;4942163;28;20220;-41
2023/12/31 05:16:36;;;;;;;7.57;3.17;;;;;;;4.47;100.00;100436.19;4931905;29;20209;-41
2023/12/31 05:19:02;;;;;;;8.18;2.95;;;;;;;4.46;100.00;100439.75;4941249;28;20197;-42
2023/12/31 05:21:27;;;;;;;10.23;3.92;;;;;;;4.44;100.00;100429.19;4944311;29;20603;-44
2023/12/31 05:23:53;;;;;;;6.60;3.30;;;;;;;4.43;100.00;100419.47;4943371;28;20229;-43
2023/12/31 05:26:18;;;;;;;7.15;3.13;;;;;;;4.44;100.00;100429.19;4942912;29;20207;-42
2023/12/31 05:28:44;;;;;;;10.30;3.15;;;;;;;4.43;100.00;100421.25;4941840;29;20186;-41
2023/12/31 05:31:10;;;;;;;6.28;3.10;;;;;;;4.43;100.00;100427.41;4944738;29;20358;-42
2023/12/31 05:33:36;;;;;;;10.85;3.78;;;;;;;4.43;100.00;100400.03;4940875;28;20202;-42
2023/12/31 05:36:02;;;;;;;8.68;3.03;;;;;;;4.43;100.00;100414.16;4925483;29;20203;-40
2023/12/31 05:38:28;;;;;;;7.90;3.53;;;;;;;4.42;100.00;100415.06;4945256;29;20175;-41
2023/12/31 05:40:53;;;;;;;8.68;3.35;;;;;;;4.43;100.00;100422.09;4938702;29;20210;-41
2023/12/31 05:43:18;;;;;;;10.13;3.40;;;;;;;4.48;100.00;100409.66;4941499;28;20215;-41
2023/12/31 05:45:44;;;;;;;5.20;2.80;;;;;;;4.46;100.00;100406.16;4943190;28;20178;-41
2023/12/31 05:48:09;;;;;;;9.30;3.50;;;;;;;4.44;100.00;100407.97;4941862;29;20215;-42
2023/12/31 05:50:35;;;;;;;11.05;3.47;;;;;;;4.46;100.00;100403.50;4942899;29;20611;-41
2023/12/31 05:53:00;;;;;;;6.07;3.50;;;;;;;4.45;100.00;100395.56;4941485;29;20235;-42
2023/12/31 05:55:26;;;;;;;6.18;3.13;;;;;;;4.44;100.00;100400.00;4942944;29;20186;-41
2023/12/31 05:57:51;;;;;;;9.48;3.30;;;;;;;4.43;100.00;100392.94;4942489;29;20289;-42
2023/12/31 06:00:17;;;;;;;6.65;3.40;;;;;;;4.44;100.00;100386.75;4942371;29;20186;-42
2023/12/31 06:02:42;;;;;;;6.95;3.05;;;;;;;4.43;100.00;100390.28;4939417;29;20355;-41
2023/12/31 06:05:08;;;;;;;6.38;2.88;;;;;;;4.43;100.00;100394.72;4941440;29;20186;-41
2023/12/31 06:07:34;;;;;;;7.60;3.28;;;;;;;4.44;100.00;100385.84;4940088;29;20193;-41
2023/12/31 06:10:00;;;;;;;8.57;3.10;;;;;;;4.44;100.00;100388.50;4941161;29;20203;-41
2023/12/31 06:12:25;;;;;;;9.52;3.58;;;;;;;4.44;100.00;100378.78;4929960;28;20203;-41
2023/12/31 06:14:51;;;;;;;6.05;3.03;;;;;;;4.46;100.00;100384.94;4944586;29;20260;-41
2023/12/31 06:17:17;;;;;;;7.75;3.10;;;;;;;4.50;100.00;100378.66;4942322;29;20245;-42
2023/12/31 06:19:42;;;;;;;10.60;3.17;;;;;;;4.50;100.00;100375.09;4941298;29;20193;-42
2023/12/31 06:22:08;;;;;;;9.43;3.38;;;;;;;4.47;100.00;100370.75;4937982;29;20210;-42
2023/12/31 06:24:33;;;;;;;8.48;3.60;;;;;;;4.48;100.00;100367.22;4942654;29;20719;-42
2023/12/31 06:26:59;;;;;;;13.38;3.85;;;;;;;4.47;100.00;100357.47;4944110;29;20182;-41
2023/12/31 06:29:24;;;;;;;7.88;3.70;;;;;;;4.46;100.00;100357.50;4942969;29;20199;-42
2023/12/31 06:31:49;;;;;;;7.78;3.65;;;;;;;4.47;100.00;100356.63;4944028;29;20657;-42
2023/12/31 06:34:16;;;;;;;10.50;3.50;;;;;;;4.47;100.00;100367.22;4931323;29;20230;-42
2023/12/31 06:36:42;;;;;;;7.28;3.17;;;;;;;4.47;100.00;100360.13;4940981;29;20211;-41
2023/12/31 06:39:08;;;;;;;10.32;3.50;;;;;;;4.47;100.00;100352.19;4939415;29;20191;-42
2023/12/31 06:41:33;;;;;;;7.57;3.25;;;;;;;4.50;100.00;100359.19;4941434;29;20195;-42
2023/12/31 06:43:59;;;;;;;12.45;3.80;;;;;;;4.48;100.00;100346.00;4944105;29;20225;-42
2023/12/31 06:46:25;;;;;;;7.80;3.75;;;;;;;4.47;100.00;100343.34;4943918;29;20672;-43
2023/12/31 06:48:51;;;;;;;11.80;3.42;;;;;;;4.46;100.00;100337.19;4940808;29;20187;-40
2023/12/31 06:51:16;;;;;;;8.30;4.07;;;;;;;4.46;100.00;100336.28;4935886;29;20179;-42
2023/12/31 06:53:42;;;;;;;5.82;3.60;;;;;;;4.44;100.00;100331.03;4936847;29;20249;-41
2023/12/31 06:56:08;;;;;;;5.85;3.20;;;;;;;4.47;100.00;100325.66;4944132;29;20198;-41
2023/12/31 06:58:37;;;;;;;14.10;3.33;;;;;;;4.50;100.00;100322.97;4942574;29;20187;-42
2023/12/31 07:01:04;;;;;;;9.20;4.07;;;;;;;4.53;100.00;100312.25;4943356;29;20222;-43
2023/12/31 07:03:29;;;;;;;6.78;3.70;;;;;;;4.51;100.00;100308.78;4938273;29;20262;-40
2023/12/31 07:05:55;;;;;;;5.57;3.28;;;;;;;4.51;100.00;100313.22;4947898;29;20182;-42
2023/12/31 07:08:20;;;;;;;13.25;3.75;;;;;;;4.46;100.00;100308.00;4941623;29;20203;-40
2023/12/31 07:10:46;;;;;;;10.15;3.42;;;;;;;4.48;100.00;100295.59;4942444;29;20631;-41
2023/12/31 07:13:11;;;;;;;9.40;3.33;;;;;;;4.49;100.00;100296.44;4942699;29;20214;-42
2023/12/31 07:15:37;;;;;;;6.57;3.13;;;;;;;4.48;100.00;100287.63;4941996;29;21001;-41
2023/12/31 07:18:03;;;;;;;9.15;3.70;;;;;;;4.49;100.00;100286.72;4942915;29;20206;-40
2023/12/31 07:20:28;;;;;;;11.77;3.15;;;;;;;4.46;100.00;100277.94;4941679;29;20187;-41
2023/12/31 07:22:54;;;;;;;7.80;3.17;;;;;;;4.50;100.00;100272.56;4941551;28;20207;-41
2023/12/31 07:25:20;;;;;;;5.35;3.50;;;;;;;4.53;100.00;100266.31;4938405;29;20175;-42
2023/12/31 07:27:46;;;;;;;10.38;3.53;;;;;;;4.51;100.00;100268.13;4940116;29;20251;-41
2023/12/31 07:30:12;;;;;;;6.55;3.30;;;;;;;4.51;100.00;100268.13;4934925;29;20199;-43
2023/12/31 07:32:38;;;;;;;6.93;2.75;;;;;;;4.46;100.00;100262.03;4943902;28;20224;-41
2023/12/31 07:35:04;;;;;;;7.32;3.10;;;;;;;4.47;100.00;100262.00;4939107;29;20278;-43
2023/12/31 07:37:30;;;;;;;7.53;3.10;;;;;;;4.46;100.00;100260.25;4937066;29;20220;-42
2023/12/31 07:39:55;;;;;;;8.25;3.17;;;;;;;4.44;100.00;100262.06;4938356;29;20198;-40
2023/12/31 07:42:21;;;;;;;7.25;2.53;;;;;;;4.44;100.00;100254.13;4938306;29;20253;-42
2023/12/31 07:44:47;;;;;;;7.20;3.53;;;;;;;4.42;100.00;100261.22;4929812;29;20246;-41
2023/12/31 07:47:12;;;;;;;9.35;2.80;;;;;;;4.45;100.00;100258.50;4932646;29;20261;-41
2023/12/31 07:49:38;;;;;;;10.95;2.85;;;;;;;4.46;100.00;100265.56;4940654;29;20208;-41
2023/12/31 07:52:03;;;;;;;4.65;2.85;;;;;;;4.41;100.00;100270.09;4945429;29;20186;-43
2023/12/31 07:54:29;;;;;;;6.20;2.60;;;;;;;4.43;100.00;100260.31;4935402;29;20662;-41
2023/12/31 07:56:54;;;;;;;7.93;2.92;;;;;;;4.41;100.00;100253.31;4938509;29;20229;-40
2023/12/31 07:59:20;;;;;;;9.80;3.40;;;;;;;4.48;100.00;100250.50;4941637;29;20201;-43
2023/12/31 08:01:45;;;;;;;8.50;3.28;;;;;;;4.51;100.00;100250.41;4940162;29;20230;-41
2023/12/31 08:04:11;;;;;;;10.82;2.65;;;;;;;4.52;100.00;100241.53;4923129;29;20211;-42
2023/12/31 08:06:36;;;;;;;5.88;2.40;;;;;;;4.49;100.00;100240.75;4940312;29;20262;-42
2023/12/31 08:09:02;;;;;;;5.68;2.53;;;;;;;4.46;100.00;100225.78;4936253;29;20187;-41
2023/12/31 08:11:28;;;;;;;6.15;2.80;;;;;;;4.49;100.00;100241.63;4932435;29;20278;-41
2023/12/31 08:13:54;;;;;;;10.00;3.13;;;;;;;4.45;100.00;100231.13;4939429;29;20547;-43
2023/12/31 08:16:19;;;;;;;9.60;3.10;;;;;;;4.47;100.00;100242.56;4935673;29;20243;-41
2023/12/31 08:18:46;;;;;;;4.30;2.67;;;;;;;4.48;100.00;100242.53;4938354;29;20282;-41
2023/12/31 08:21:12;;;;;;;8.20;2.67;;;;;;;4.49;100.00;100231.00;4937485;29;20239;-41
2023/12/31 08:23:37;;;;;;;5.45;2.70;;;;;;;4.49;100.00;100233.66;4941494;29;20206;-43
2023/12/31 08:26:06;;;;;;;7.00;2.55;;;;;;;4.50;100.00;100226.56;4941240;29;20187;-41
2023/12/31 08:28:31;;;;;;;7.90;2.50;;;;;;;4.53;100.00;100230.03;4928160;29;20298;-43
2023/12/31 08:30:57;;;;;;;5.45;2.75;;;;;;;4.57;100.00;100224.63;4940544;29;20265;-40
2023/12/31 08:33:22;;;;;;;6.68;2.72;;;;;;;4.52;100.00;100222.97;4944003;28;20226;-42
2023/12/31 08:35:48;;;;;;;6.78;3.30;;;;;;;4.58;100.00;100224.63;4936967;29;20249;-41
2023/12/31 08:38:14;;;;;;;4.72;2.40;;;;;;;4.58;100.00;100213.13;4940176;29;20215;-43
2023/12/31 08:40:40;;;;;;;6.18;2.53;;;;;;;4.61;100.00;100213.06;4935835;29;20650;-41
2023/12/31 08:43:05;;;;;;;6.80;2.38;;;;;;;4.61;100.00;100199.78;4936825;29;20301;-40
2023/12/31 08:45:32;;;;;;;4.55;2.33;;;;;;;4.64;100.00;100202.38;4941903;29;20186;-43
2023/12/31 08:47:58;;;;;;;9.35;2.85;;;;;;;4.67;100.00;100183.72;4940327;29;20688;-42
2023/12/31 08:50:24;;;;;;;11.38;2.65;;;;;;;4.66;100.00;100176.69;4939914;29;20187;-41
2023/12/31 08:52:49;;;;;;;6.53;2.92;;;;;;;4.72;100.00;100179.16;4941413;29;20210;-40
2023/12/31 08:55:16;;;;;;;7.07;2.38;;;;;;;4.72;100.00;100176.50;4936720;29;20371;-40
2023/12/31 08:57:47;;;;;;;4.13;1.80;;;;;;;4.71;100.00;100167.69;4935765;29;20721;-40
2023/12/31 09:00:14;;;;;;;8.15;2.53;;;;;;;4.72;100.00;100184.47;4937711;29;20190;-40
2023/12/31 09:02:39;;;;;;;7.25;2.60;;;;;;;4.70;100.00;100163.31;4940418;28;20206;-42
2023/12/31 09:05:05;;;;;;;7.78;2.65;;;;;;;4.75;100.00;100157.88;4942316;29;20191;-40
2023/12/31 09:07:37;;;;;;;3.97;2.10;;;;;;;4.75;100.00;100156.09;4935851;29;20210;-40
2023/12/31 09:10:03;;;;;;;4.25;2.15;;;;;;;4.75;100.00;100158.75;4940488;29;20187;-42
2023/12/31 09:12:29;;;;;;;7.35;2.72;;;;;;;4.75;100.00;100160.53;4936958;29;20199;-41
2023/12/31 09:14:55;;;;;;;8.38;2.45;;;;;;;4.77;100.00;100153.41;4937468;29;20668;-40
2023/12/31 09:17:20;;;;;;;8.23;2.45;;;;;;;4.80;100.00;100149.78;4938897;29;20219;-43
2023/12/31 09:19:45;;;;;;;5.15;2.08;;;;;;;4.85;100.00;100151.41;4939545;29;20242;-41
2023/12/31 09:22:11;;;;;;;3.92;1.90;;;;;;;4.89;100.00;100128.31;4928631;29;20272;-42
2023/12/31 09:24:37;;;;;;;4.95;1.90;;;;;;;4.91;100.00;100139.78;4937730;29;20211;-40
2023/12/31 09:27:03;;;;;;;4.78;2.15;;;;;;;4.91;100.00;100131.81;4920701;29;21149;-41
2023/12/31 09:29:30;;;;;;;5.55;2.25;;;;;;;4.99;100.00;100121.00;4938288;29;20556;-42
2023/12/31 09:31:55;;;;;;;2.13;1.58;;;;;;;5.00;100.00;100130.69;4941384;29;20238;-41
2023/12/31 09:34:21;;;;;;;4.90;2.05;;;;;;;5.03;100.00;100125.28;4938669;28;20680;-42
2023/12/31 09:36:46;;;;;;;3.55;2.15;;;;;;;5.08;100.00;100129.56;4942720;29;20214;-41
2023/12/31 09:39:13;;;;;;;3.72;2.08;;;;;;;5.14;100.00;100113.47;4938572;29;20187;-39
2023/12/31 09:41:40;;;;;;;5.55;1.98;;;;;;;5.20;100.00;100115.09;4939675;29;20929;-39
2023/12/31 09:44:06;;;;;;;2.92;1.67;;;;;;;5.31;100.00;100106.81;4940298;28;20302;-40
2023/12/31 09:46:37;;;;;;;3.03;1.85;;;;;;;5.35;100.00;100112.00;4936105;29;20207;-43
2023/12/31 09:49:03;;;;;;;6.25;2.20;;;;;;;5.45;100.00;100111.75;4938994;29;20190;-42
2023/12/31 09:51:29;;;;;;;6.18;1.67;;;;;;;5.47;100.00;100109.94;4940735;29;20281;-42
2023/12/31 09:53:56;;;;;;;3.65;1.60;;;;;;;5.54;100.00;100100.84;4937263;28;20260;-42
2023/12/31 09:56:22;;;;;;;3.75;1.50;;;;;;;5.59;100.00;100096.25;4938594;29;20230;-41
2023/12/31 09:58:51;;;;;;;6.88;1.88;;;;;;;5.61;100.00;100075.84;4939809;29;20274;-40
2023/12/31 10:01:17;;;;;;;4.00;1.70;;;;;;;5.67;100.00;100061.50;4942854;29;20571;-41
2023/12/31 10:03:46;;;;;;;4.80;1.75;;;;;;;5.72;100.00;100067.53;4942606;29;20232;-42
2023/12/31 10:06:11;;;;;;;3.75;1.48;;;;;;;5.74;100.00;100063.91;4940877;28;20231;-41
2023/12/31 10:08:41;;;;;;;3.33;1.92;;;;;;;5.73;100.00;100061.31;4939086;29;20218;-42
2023/12/31 10:11:07;;;;;;;5.40;1.85;;;;;;;5.76;100.00;100045.28;4942389;29;20273;-43
2023/12/31 10:13:33;;;;;;;3.95;1.50;;;;;;;5.83;100.00;100040.63;4941023;29;20202;-42
2023/12/31 10:15:58;;;;;;;2.60;2.03;;;;;;;5.87;100.00;100034.31;4937973;29;20186;-39
2023/12/31 10:18:26;;;;;;;2.35;1.60;;;;;;;5.90;100.00;100028.88;4939499;29;20221;-42
2023/12/31 10:20:53;;;;;;;3.65;1.92;;;;;;;5.95;100.00;100030.50;4944243;29;20195;-39
2023/12/31 10:23:18;;;;;;;2.75;1.73;;;;;;;5.95;100.00;100027.00;4940687;28;20289;-40
2023/12/31 10:25:44;;;;;;;3.95;2.05;;;;;;;5.98;100.00;100021.56;4938126;29;20274;-41
2023/12/31 10:28:10;;;;;;;4.03;2.20;;;;;;;6.02;100.00;100017.88;4936136;29;20179;-39
2023/12/31 10:30:39;;;;;;;5.60;2.72;;;;;;;6.03;100.00;100000.13;4937862;28;20223;-43
2023/12/31 10:33:09;;;;;;;5.63;2.25;;;;;;;6.05;100.00;99991.19;4940628;28;20214;-41
2023/12/31 10:35:35;;;;;;;9.68;5.05;;;;;;;6.08;100.00;99985.78;4942672;29;20764;-40
2023/12/31 10:38:05;;;;;;;4.60;2.90;;;;;;;6.15;100.00;99982.00;4941127;29;20586;-41
2023/12/31 10:40:33;;;;;;;15.63;7.90;;;;;;;6.17;100.00;99973.97;4943041;29;20575;-41
2023/12/31 10:42:59;;;;;;;3.35;2.40;;;;;;;6.21;100.00;99966.72;4935688;29;20219;-41
2023/12/31 10:45:26;;;;;;;7.55;4.80;;;;;;;6.23;100.00;99963.13;4943053;29;20194;-43
2023/12/31 10:47:54;;;;;;;4.03;1.92;;;;;;;6.26;100.00;99959.50;4941503;29;20182;-41
2023/12/31 10:50:24;;;;;;;2.15;1.52;;;;;;;6.36;100.00;99947.59;4945356;29;20199;-40
2023/12/31 10:52:53;;;;;;;2.42;1.70;;;;;;;6.39;100.00;99952.81;4945316;29;20217;-40
2023/12/31 10:55:23;;;;;;;2.67;1.40;;;;;;;6.47;100.00;99940.13;4941175;29;20191;-42
2023/12/31 10:57:50;;;;;;;2.50;1.30;;;;;;;6.54;100.00;99935.44;4940336;29;20289;-41
2023/12/31 11:00:18;;;;;;;2.22;1.38;;;;;;;6.57;100.00;99925.53;4946353;29;20175;-42
2023/12/31 11:02:44;;;;;;;1.75;1.38;;;;;;;6.57;100.00;99916.69;4942614;29;20646;-40
2023/12/31 11:05:10;;;;;;;3.67;1.40;;;;;;;6.63;100.00;99915.59;4943413;29;20193;-41
2023/12/31 11:07:35;;;;;;;4.80;1.20;;;;;;;6.62;100.00;99911.19;4938209;29;20188;-42
2023/12/31 11:10:02;;;;;;;3.63;1.38;;;;;;;6.61;100.00;99910.34;4937526;29;20225;-40
2023/12/31 11:12:28;;;;;;;2.17;1.00;;;;;;;6.64;100.00;99909.34;4967421;23;20761;-43
2023/12/31 11:14:59;;;;;;;1.90;1.25;;;;;;;6.66;100.00;99884.41;4967036;28;20272;-43